METAR Data
IDs: Format: Raw Decoded Include TAF

Data at: 2237 UTC 02 Aug 2021

KRDD 022153Z 10SM FU CLR 36/09 A2999 RMK AO2 SLP147 T03560089
KRDD 022053Z VRB06KT 10SM FU CLR 35/09 A3001 RMK AO2 SLP154 T03500094 58014
KRDD 021953Z 18006KT 10SM FU CLR 33/09 A3003 RMK AO2 SLP161 T03330089
KRDD 021853Z 00000KT 10SM FU CLR 31/10 A3004 RMK AO2 SLP165 T03110100
KRDD 021753Z 00000KT 10SM FU CLR 29/09 A3005 RMK AO2 SLP169 T02890094 10289 20200 58005
KRDD 021653Z 21004KT 10SM FU CLR 26/09 A3006 RMK AO2 SLP171 T02610089
KRDD 021553Z 20004KT 10SM FU CLR 24/08 A3007 RMK AO2 SLP174 T02440083
KRDD 021453Z 20004KT 10SM FU CLR 23/08 A3007 RMK AO2 SLP174 T02330078 51017
KRDD 021353Z 21007KT 10SM FU CLR 23/08 A3005 RMK AO2 SLP169 T02280083
KRDD 021253Z AUTO 22004KT 10SM FU CLR 21/09 A3003 RMK AO2 SLP163 T02110094
KRDD 021153Z AUTO 21005KT 10SM FU CLR 24/10 A3001 RMK AO2 SLP156 T02390100 10311 20222 51012
KRDD 021053Z AUTO 00000KT 10SM FU CLR 23/09 A3001 RMK AO2 SLP154 T02280094
KRDD 020953Z AUTO 00000KT 10SM FU CLR 24/09 A2999 RMK AO2 SLP148 T02390094
KRDD 020853Z AUTO 00000KT 10SM FU CLR 24/11 A2998 RMK AO2 SLP144 T02440106 51010
KRDD 020753Z AUTO 00000KT 10SM FU CLR 27/11 A2997 RMK AO2 SLP141 T02720111 404110211
KRDD 020653Z AUTO 00000KT 10SM FU CLR 29/12 A2996 RMK AO2 SLP138 T02940117
KRDD 020553Z AUTO 16005KT 10SM FU CLR 30/09 A2995 RMK AO2 SLP132 T03000094 10406 20300 53018
KRDD 020453Z AUTO 20009KT 10SM FU CLR 34/08 A2993 RMK AO2 SLP126 T03390078
KRDD 020353Z AUTO 20006KT 10SM FU CLR 35/04 A2990 RMK AO2 SLP119 T03500044
KRDD 020253Z 17006KT 10SM FU CLR 36/06 A2989 RMK AO2 SLP115 T03610061 55001
KRDD 020153Z 16011KT 10SM FU CLR 39/04 A2987 RMK AO2 SLP109 T03890044
KRDD 020053Z 17012KT 10SM FU CLR 40/03 A2988 RMK AO2 SLP111 T04000033
KRDD 012353Z 17015KT 10SM FU CLR 41/03 A2989 RMK AO2 SLP115 T04060033 10411 20328 56020
KRDD 012253Z 14013G18KT 10SM FU CLR 41/03 A2991 RMK AO2 SLP120 T04060033
KRDD 012153Z 14007KT 100V160 10SM FU CLR 39/08 A2993 RMK AO2 SLP126 T03940078
KRDD 012053Z VRB03KT 10SM FU CLR 38/07 A2995 RMK AO2 SLP135 T03780072 56013
KRDD 011953Z VRB03KT 10SM FU CLR 37/07 A2996 RMK AO2 SLP139 T03670072
KRDD 011853Z 12004KT 10SM FU CLR 35/11 A2998 RMK AO2 SLP144 T03500106
KRDD 011753Z 12003KT 10SM FU CLR 33/11 A2999 RMK AO2 SLP148 T03280111 10333 20211 58005
KRDD 011653Z 00000KT 10SM FU CLR 31/11 A3000 RMK AO2 SLP152 T03060106
KRDD 011553Z 00000KT 10SM FU CLR 28/11 A3001 RMK AO2 SLP155 T02830111
KRDD 011453Z 00000KT 10SM FU CLR 26/12 A3001 RMK AO2 SLP154 T02560117 51010
KRDD 011353Z 00000KT 10SM FU CLR 22/12 A2999 RMK AO2 SLP150 T02170122
KRDD 011253Z AUTO 00000KT 10SM FU CLR 23/12 A2999 RMK AO2 SLP147 T02280117
KRDD 011153Z AUTO 02004KT 10SM FU CLR 23/12 A2997 RMK AO2 SLP143 T02330117 10306 20233 51005
KRDD 011053Z AUTO 14003KT 10SM FU CLR 24/12 A2997 RMK AO2 SLP140 T02440122